Decoded Metar for YWGT (WANGARATTA ARP in _UNIDENTIFIED) (IATA:WGT) | Meteo·Mobile Aviation Weather
aviador You're here:

YWGT Decoded Metar

WANGARATTA ARP in _UNIDENTIFIED
Report Time2018-09-19 21:00:00
UTC Time2018-09-19 22:09:09
Flight Rules Old
WindCalm
Visibility9999 m
Phenomena:N/A
Clouds:N/A
CeilingNone
Temp00°C (ISA -14)
Dew Point00°C (100% RH)
AAT-2.0°C
QNH1020 hPa
Density Alt-1,362 ft
Elevation502 ft
Report Wrong Elevation
Raw Report
YWGT 192100Z AUTO 00000KT 9999 // NCD 00/M00 Q1020=

Extra information for YWGT:More info

Metar Taf Metar & Taf Last 4 Metars F.Rules Stats Wind Profile Meteogram Temp Stats Airport Information Weather charts Add Link Nearby VenuesMetar ALERT Operation Metar Decoded Social comments